sensor_id;sensor_type;location;lat;lon;timestamp;P1;durP1;ratioP1;P2;durP2;ratioP2
72156;SDS011;60035;52.122;5.406;2023-05-10T00:00:07;29.42;;;12.63;;
72156;SDS011;60035;52.122;5.406;2023-05-10T00:02:35;28.10;;;12.88;;
72156;SDS011;60035;52.122;5.406;2023-05-10T00:05:02;28.90;;;12.63;;
72156;SDS011;60035;52.122;5.406;2023-05-10T00:07:28;32.20;;;14.18;;
72156;SDS011;60035;52.122;5.406;2023-05-10T00:09:55;32.50;;;13.85;;
72156;SDS011;60035;52.122;5.406;2023-05-10T00:12:21;33.63;;;14.90;;
72156;SDS011;60035;52.122;5.406;2023-05-10T00:14:48;35.05;;;14.57;;
72156;SDS011;60035;52.122;5.406;2023-05-10T00:17:14;35.05;;;14.05;;
72156;SDS011;60035;52.122;5.406;2023-05-10T00:19:41;36.53;;;15.00;;
72156;SDS011;60035;52.122;5.406;2023-05-10T00:22:07;37.13;;;15.05;;
72156;SDS011;60035;52.122;5.406;2023-05-10T00:24:34;37.15;;;15.52;;
72156;SDS011;60035;52.122;5.406;2023-05-10T00:27:00;40.53;;;15.57;;
72156;SDS011;60035;52.122;5.406;2023-05-10T00:29:27;40.35;;;17.10;;
72156;SDS011;60035;52.122;5.406;2023-05-10T00:31:54;43.00;;;18.48;;
72156;SDS011;60035;52.122;5.406;2023-05-10T00:34:20;39.17;;;17.05;;
72156;SDS011;60035;52.122;5.406;2023-05-10T00:36:47;47.83;;;19.30;;
72156;SDS011;60035;52.122;5.406;2023-05-10T00:39:13;44.30;;;18.50;;
72156;SDS011;60035;52.122;5.406;2023-05-10T00:41:40;47.65;;;18.40;;
72156;SDS011;60035;52.122;5.406;2023-05-10T00:44:06;47.40;;;17.90;;
72156;SDS011;60035;52.122;5.406;2023-05-10T00:46:33;49.00;;;19.98;;
72156;SDS011;60035;52.122;5.406;2023-05-10T00:49:00;49.42;;;19.65;;
72156;SDS011;60035;52.122;5.406;2023-05-10T00:51:27;46.63;;;18.35;;
72156;SDS011;60035;52.122;5.406;2023-05-10T00:53:53;51.80;;;20.98;;
72156;SDS011;60035;52.122;5.406;2023-05-10T00:56:22;50.35;;;19.52;;
72156;SDS011;60035;52.122;5.406;2023-05-10T00:58:50;50.45;;;20.38;;
72156;SDS011;60035;52.122;5.406;2023-05-10T01:01:17;54.85;;;21.05;;
72156;SDS011;60035;52.122;5.406;2023-05-10T01:03:43;53.60;;;20.08;;
72156;SDS011;60035;52.122;5.406;2023-05-10T01:06:10;50.03;;;20.17;;
72156;SDS011;60035;52.122;5.406;2023-05-10T01:08:37;54.80;;;21.20;;
72156;SDS011;60035;52.122;5.406;2023-05-10T01:11:03;55.10;;;21.65;;
72156;SDS011;60035;52.122;5.406;2023-05-10T01:13:32;54.78;;;19.98;;
72156;SDS011;60035;52.122;5.406;2023-05-10T01:16:02;54.38;;;21.85;;
72156;SDS011;60035;52.122;5.406;2023-05-10T01:18:29;56.17;;;21.10;;
72156;SDS011;60035;52.122;5.406;2023-05-10T01:21:02;61.22;;;21.77;;
72156;SDS011;60035;52.122;5.406;2023-05-10T01:23:45;54.22;;;20.83;;
72156;SDS011;60035;52.122;5.406;2023-05-10T01:29:38;53.15;;;20.40;;
72156;SDS011;60035;52.122;5.406;2023-05-10T01:40:48;55.17;;;21.15;;
72156;SDS011;60035;52.122;5.406;2023-05-10T01:43:30;54.97;;;19.20;;
72156;SDS011;60035;52.122;5.406;2023-05-10T01:46:08;55.00;;;19.88;;
72156;SDS011;60035;52.122;5.406;2023-05-10T01:48:41;60.63;;;20.65;;
72156;SDS011;60035;52.122;5.406;2023-05-10T01:51:16;58.58;;;22.00;;
72156;SDS011;60035;52.122;5.406;2023-05-10T01:53:49;53.90;;;18.67;;
72156;SDS011;60035;52.122;5.406;2023-05-10T01:56:18;55.40;;;20.23;;
72156;SDS011;60035;52.122;5.406;2023-05-10T01:58:50;56.03;;;20.80;;
72156;SDS011;60035;52.122;5.406;2023-05-10T02:01:18;58.60;;;20.92;;
72156;SDS011;60035;52.122;5.406;2023-05-10T02:03:48;57.40;;;21.38;;
72156;SDS011;60035;52.122;5.406;2023-05-10T02:06:18;56.13;;;21.85;;
72156;SDS011;60035;52.122;5.406;2023-05-10T02:08:48;55.75;;;21.45;;
72156;SDS011;60035;52.122;5.406;2023-05-10T02:11:16;61.63;;;22.48;;
72156;SDS011;60035;52.122;5.406;2023-05-10T02:13:44;62.05;;;21.20;;
72156;SDS011;60035;52.122;5.406;2023-05-10T02:16:13;61.28;;;22.05;;
72156;SDS011;60035;52.122;5.406;2023-05-10T02:18:42;58.83;;;21.38;;
72156;SDS011;60035;52.122;5.406;2023-05-10T02:21:09;62.90;;;20.65;;
72156;SDS011;60035;52.122;5.406;2023-05-10T02:23:37;66.10;;;22.90;;
72156;SDS011;60035;52.122;5.406;2023-05-10T02:26:04;62.08;;;21.48;;
72156;SDS011;60035;52.122;5.406;2023-05-10T02:28:32;58.38;;;21.35;;
72156;SDS011;60035;52.122;5.406;2023-05-10T02:31:01;61.47;;;21.35;;
72156;SDS011;60035;52.122;5.406;2023-05-10T02:33:28;60.78;;;20.70;;
72156;SDS011;60035;52.122;5.406;2023-05-10T02:35:57;62.30;;;21.60;;
72156;SDS011;60035;52.122;5.406;2023-05-10T02:38:25;61.00;;;21.30;;
72156;SDS011;60035;52.122;5.406;2023-05-10T02:40:52;65.32;;;22.17;;
72156;SDS011;60035;52.122;5.406;2023-05-10T02:43:20;64.28;;;20.90;;
72156;SDS011;60035;52.122;5.406;2023-05-10T02:45:49;62.70;;;22.83;;
72156;SDS011;60035;52.122;5.406;2023-05-10T02:48:15;64.90;;;22.77;;
72156;SDS011;60035;52.122;5.406;2023-05-10T02:50:43;65.30;;;21.75;;
72156;SDS011;60035;52.122;5.406;2023-05-10T02:53:11;66.50;;;23.95;;
72156;SDS011;60035;52.122;5.406;2023-05-10T02:55:42;64.90;;;23.13;;
72156;SDS011;60035;52.122;5.406;2023-05-10T02:58:15;67.10;;;23.80;;
72156;SDS011;60035;52.122;5.406;2023-05-10T03:00:41;73.03;;;23.38;;
72156;SDS011;60035;52.122;5.406;2023-05-10T03:03:08;72.63;;;22.77;;
72156;SDS011;60035;52.122;5.406;2023-05-10T03:05:34;76.95;;;23.73;;
72156;SDS011;60035;52.122;5.406;2023-05-10T03:08:01;76.55;;;23.80;;
72156;SDS011;60035;52.122;5.406;2023-05-10T03:10:30;91.28;;;26.42;;
72156;SDS011;60035;52.122;5.406;2023-05-10T03:13:06;98.35;;;26.67;;
72156;SDS011;60035;52.122;5.406;2023-05-10T03:15:47;88.32;;;24.02;;
72156;SDS011;60035;52.122;5.406;2023-05-10T03:18:23;86.82;;;26.40;;
72156;SDS011;60035;52.122;5.406;2023-05-10T03:20:57;91.75;;;26.13;;
72156;SDS011;60035;52.122;5.406;2023-05-10T03:23:34;81.93;;;23.20;;
72156;SDS011;60035;52.122;5.406;2023-05-10T03:26:02;89.53;;;24.20;;
72156;SDS011;60035;52.122;5.406;2023-05-10T03:28:29;87.32;;;24.45;;
72156;SDS011;60035;52.122;5.406;2023-05-10T03:30:56;83.32;;;22.95;;
72156;SDS011;60035;52.122;5.406;2023-05-10T03:33:24;91.07;;;23.45;;
72156;SDS011;60035;52.122;5.406;2023-05-10T03:35:51;88.72;;;24.17;;
72156;SDS011;60035;52.122;5.406;2023-05-10T03:38:18;86.93;;;24.00;;
72156;SDS011;60035;52.122;5.406;2023-05-10T03:40:44;82.78;;;23.02;;
72156;SDS011;60035;52.122;5.406;2023-05-10T03:43:11;80.85;;;22.73;;
72156;SDS011;60035;52.122;5.406;2023-05-10T03:45:37;78.70;;;23.10;;
72156;SDS011;60035;52.122;5.406;2023-05-10T03:48:04;80.55;;;23.50;;
72156;SDS011;60035;52.122;5.406;2023-05-10T03:50:31;78.28;;;23.02;;
72156;SDS011;60035;52.122;5.406;2023-05-10T03:52:57;83.38;;;22.80;;
72156;SDS011;60035;52.122;5.406;2023-05-10T03:55:24;89.40;;;24.25;;
72156;SDS011;60035;52.122;5.406;2023-05-10T03:57:50;79.55;;;22.95;;
72156;SDS011;60035;52.122;5.406;2023-05-10T04:00:17;79.63;;;22.80;;
72156;SDS011;60035;52.122;5.406;2023-05-10T04:02:44;86.00;;;25.27;;
72156;SDS011;60035;52.122;5.406;2023-05-10T04:05:11;76.82;;;22.88;;
72156;SDS011;60035;52.122;5.406;2023-05-10T04:07:38;76.85;;;22.80;;
72156;SDS011;60035;52.122;5.406;2023-05-10T04:10:05;81.13;;;23.38;;
72156;SDS011;60035;52.122;5.406;2023-05-10T04:12:32;71.82;;;21.55;;
72156;SDS011;60035;52.122;5.406;2023-05-10T04:14:59;82.57;;;24.10;;
72156;SDS011;60035;52.122;5.406;2023-05-10T04:17:25;80.30;;;23.58;;
72156;SDS011;60035;52.122;5.406;2023-05-10T04:19:51;73.40;;;22.17;;
72156;SDS011;60035;52.122;5.406;2023-05-10T04:22:20;76.43;;;22.33;;
72156;SDS011;60035;52.122;5.406;2023-05-10T04:24:47;80.75;;;23.00;;
72156;SDS011;60035;52.122;5.406;2023-05-10T04:27:13;73.78;;;22.30;;
72156;SDS011;60035;52.122;5.406;2023-05-10T04:29:40;75.82;;;23.83;;
72156;SDS011;60035;52.122;5.406;2023-05-10T04:32:07;77.88;;;22.88;;
72156;SDS011;60035;52.122;5.406;2023-05-10T04:34:34;80.78;;;21.92;;
72156;SDS011;60035;52.122;5.406;2023-05-10T04:37:00;73.43;;;21.92;;
72156;SDS011;60035;52.122;5.406;2023-05-10T04:39:27;76.90;;;23.27;;
72156;SDS011;60035;52.122;5.406;2023-05-10T04:41:53;71.60;;;21.40;;
72156;SDS011;60035;52.122;5.406;2023-05-10T04:44:19;75.13;;;20.88;;
72156;SDS011;60035;52.122;5.406;2023-05-10T04:46:46;78.45;;;23.02;;
72156;SDS011;60035;52.122;5.406;2023-05-10T04:49:12;77.38;;;22.90;;
72156;SDS011;60035;52.122;5.406;2023-05-10T04:51:40;76.03;;;22.40;;
72156;SDS011;60035;52.122;5.406;2023-05-10T04:54:06;75.05;;;22.35;;
72156;SDS011;60035;52.122;5.406;2023-05-10T04:56:33;72.72;;;21.73;;
72156;SDS011;60035;52.122;5.406;2023-05-10T04:58:59;85.07;;;23.45;;
72156;SDS011;60035;52.122;5.406;2023-05-10T05:01:26;80.55;;;23.30;;
72156;SDS011;60035;52.122;5.406;2023-05-10T05:03:53;78.32;;;23.85;;
72156;SDS011;60035;52.122;5.406;2023-05-10T05:06:20;87.80;;;24.08;;
72156;SDS011;60035;52.122;5.406;2023-05-10T05:08:51;81.00;;;23.50;;
72156;SDS011;60035;52.122;5.406;2023-05-10T05:11:17;74.57;;;22.90;;
72156;SDS011;60035;52.122;5.406;2023-05-10T05:13:44;75.63;;;22.55;;
72156;SDS011;60035;52.122;5.406;2023-05-10T05:16:10;77.88;;;23.25;;
72156;SDS011;60035;52.122;5.406;2023-05-10T05:18:37;81.75;;;22.42;;
72156;SDS011;60035;52.122;5.406;2023-05-10T05:21:13;77.28;;;23.52;;
72156;SDS011;60035;52.122;5.406;2023-05-10T05:23:41;72.68;;;23.10;;
72156;SDS011;60035;52.122;5.406;2023-05-10T05:26:07;89.78;;;25.42;;
72156;SDS011;60035;52.122;5.406;2023-05-10T05:28:34;76.60;;;23.63;;
72156;SDS011;60035;52.122;5.406;2023-05-10T05:31:03;80.32;;;23.77;;
72156;SDS011;60035;52.122;5.406;2023-05-10T05:33:30;82.95;;;24.60;;
72156;SDS011;60035;52.122;5.406;2023-05-10T05:35:59;77.20;;;25.05;;
72156;SDS011;60035;52.122;5.406;2023-05-10T05:38:26;76.45;;;23.42;;
72156;SDS011;60035;52.122;5.406;2023-05-10T05:40:53;74.82;;;23.73;;
72156;SDS011;60035;52.122;5.406;2023-05-10T05:43:19;93.72;;;23.27;;
72156;SDS011;60035;52.122;5.406;2023-05-10T05:45:46;69.75;;;23.30;;
72156;SDS011;60035;52.122;5.406;2023-05-10T05:48:12;64.95;;;21.75;;
72156;SDS011;60035;52.122;5.406;2023-05-10T05:50:38;59.50;;;21.77;;
72156;SDS011;60035;52.122;5.406;2023-05-10T05:53:05;67.30;;;23.85;;
72156;SDS011;60035;52.122;5.406;2023-05-10T05:55:31;68.53;;;23.10;;
72156;SDS011;60035;52.122;5.406;2023-05-10T05:57:58;77.70;;;24.52;;
72156;SDS011;60035;52.122;5.406;2023-05-10T06:00:24;71.40;;;22.40;;
72156;SDS011;60035;52.122;5.406;2023-05-10T06:02:51;72.13;;;24.13;;
72156;SDS011;60035;52.122;5.406;2023-05-10T06:05:18;59.53;;;21.65;;
72156;SDS011;60035;52.122;5.406;2023-05-10T06:07:46;60.50;;;19.58;;
72156;SDS011;60035;52.122;5.406;2023-05-10T06:10:12;53.63;;;18.55;;
72156;SDS011;60035;52.122;5.406;2023-05-10T06:12:39;75.18;;;23.45;;
72156;SDS011;60035;52.122;5.406;2023-05-10T06:15:06;53.60;;;20.75;;
72156;SDS011;60035;52.122;5.406;2023-05-10T06:17:32;80.47;;;22.20;;
72156;SDS011;60035;52.122;5.406;2023-05-10T06:19:59;104.38;;;23.55;;
72156;SDS011;60035;52.122;5.406;2023-05-10T06:22:25;76.50;;;21.85;;
72156;SDS011;60035;52.122;5.406;2023-05-10T06:24:52;66.03;;;21.45;;
72156;SDS011;60035;52.122;5.406;2023-05-10T06:27:18;75.78;;;21.80;;
72156;SDS011;60035;52.122;5.406;2023-05-10T06:29:45;60.63;;;20.67;;
72156;SDS011;60035;52.122;5.406;2023-05-10T06:32:11;75.25;;;20.58;;
72156;SDS011;60035;52.122;5.406;2023-05-10T06:34:38;53.75;;;20.15;;
72156;SDS011;60035;52.122;5.406;2023-05-10T06:37:04;70.68;;;22.10;;
72156;SDS011;60035;52.122;5.406;2023-05-10T06:39:31;59.17;;;20.45;;
72156;SDS011;60035;52.122;5.406;2023-05-10T06:41:57;64.93;;;19.67;;
72156;SDS011;60035;52.122;5.406;2023-05-10T06:44:23;68.70;;;17.88;;
72156;SDS011;60035;52.122;5.406;2023-05-10T06:46:50;51.95;;;16.83;;
72156;SDS011;60035;52.122;5.406;2023-05-10T06:49:18;52.53;;;16.63;;
72156;SDS011;60035;52.122;5.406;2023-05-10T06:51:45;52.17;;;17.33;;
72156;SDS011;60035;52.122;5.406;2023-05-10T06:54:11;46.92;;;16.92;;
72156;SDS011;60035;52.122;5.406;2023-05-10T06:56:38;44.72;;;14.52;;
72156;SDS011;60035;52.122;5.406;2023-05-10T06:59:04;39.38;;;14.75;;
72156;SDS011;60035;52.122;5.406;2023-05-10T07:01:31;44.90;;;14.73;;
72156;SDS011;60035;52.122;5.406;2023-05-10T07:03:57;33.72;;;12.88;;
72156;SDS011;60035;52.122;5.406;2023-05-10T07:06:24;37.67;;;13.27;;
72156;SDS011;60035;52.122;5.406;2023-05-10T07:08:59;33.83;;;12.32;;
72156;SDS011;60035;52.122;5.406;2023-05-10T07:11:26;27.73;;;12.38;;
72156;SDS011;60035;52.122;5.406;2023-05-10T07:13:53;30.77;;;11.68;;
72156;SDS011;60035;52.122;5.406;2023-05-10T07:16:19;27.73;;;11.15;;
72156;SDS011;60035;52.122;5.406;2023-05-10T07:18:46;25.27;;;10.70;;
72156;SDS011;60035;52.122;5.406;2023-05-10T07:21:12;26.02;;;9.77;;
72156;SDS011;60035;52.122;5.406;2023-05-10T07:23:39;19.17;;;8.40;;
72156;SDS011;60035;52.122;5.406;2023-05-10T07:26:07;23.20;;;9.48;;
72156;SDS011;60035;52.122;5.406;2023-05-10T07:28:33;20.13;;;8.60;;
72156;SDS011;60035;52.122;5.406;2023-05-10T07:31:02;21.40;;;9.48;;
72156;SDS011;60035;52.122;5.406;2023-05-10T07:33:29;21.08;;;8.40;;
72156;SDS011;60035;52.122;5.406;2023-05-10T07:35:56;21.27;;;8.98;;
72156;SDS011;60035;52.122;5.406;2023-05-10T07:38:22;21.17;;;8.45;;
72156;SDS011;60035;52.122;5.406;2023-05-10T07:40:49;22.50;;;8.85;;
72156;SDS011;60035;52.122;5.406;2023-05-10T07:43:15;21.10;;;9.10;;
72156;SDS011;60035;52.122;5.406;2023-05-10T07:45:42;21.45;;;7.95;;
72156;SDS011;60035;52.122;5.406;2023-05-10T07:48:09;19.17;;;8.30;;
72156;SDS011;60035;52.122;5.406;2023-05-10T07:50:36;21.17;;;9.25;;
72156;SDS011;60035;52.122;5.406;2023-05-10T07:53:02;19.75;;;9.20;;
72156;SDS011;60035;52.122;5.406;2023-05-10T07:55:29;18.00;;;8.40;;
72156;SDS011;60035;52.122;5.406;2023-05-10T07:57:56;18.17;;;7.68;;
72156;SDS011;60035;52.122;5.406;2023-05-10T08:00:22;20.33;;;8.50;;
72156;SDS011;60035;52.122;5.406;2023-05-10T08:02:49;21.60;;;8.80;;
72156;SDS011;60035;52.122;5.406;2023-05-10T08:05:15;17.13;;;7.03;;
72156;SDS011;60035;52.122;5.406;2023-05-10T08:07:42;19.85;;;8.40;;
72156;SDS011;60035;52.122;5.406;2023-05-10T08:10:09;16.23;;;6.63;;
72156;SDS011;60035;52.122;5.406;2023-05-10T08:12:37;21.17;;;8.93;;
72156;SDS011;60035;52.122;5.406;2023-05-10T08:15:04;17.27;;;8.07;;
72156;SDS011;60035;52.122;5.406;2023-05-10T08:17:31;17.95;;;7.90;;
72156;SDS011;60035;52.122;5.406;2023-05-10T08:19:58;20.27;;;8.70;;
72156;SDS011;60035;52.122;5.406;2023-05-10T08:22:25;19.73;;;8.52;;
72156;SDS011;60035;52.122;5.406;2023-05-10T08:24:52;19.17;;;7.82;;
72156;SDS011;60035;52.122;5.406;2023-05-10T08:27:18;17.42;;;8.38;;
72156;SDS011;60035;52.122;5.406;2023-05-10T08:29:44;19.40;;;8.52;;
72156;SDS011;60035;52.122;5.406;2023-05-10T08:32:15;21.23;;;9.40;;
72156;SDS011;60035;52.122;5.406;2023-05-10T08:34:42;18.08;;;8.38;;
72156;SDS011;60035;52.122;5.406;2023-05-10T08:37:08;23.88;;;10.35;;
72156;SDS011;60035;52.122;5.406;2023-05-10T08:39:37;19.40;;;10.02;;
72156;SDS011;60035;52.122;5.406;2023-05-10T08:42:03;18.73;;;8.98;;
72156;SDS011;60035;52.122;5.406;2023-05-10T08:44:31;19.50;;;9.27;;
72156;SDS011;60035;52.122;5.406;2023-05-10T08:47:01;19.60;;;9.10;;
72156;SDS011;60035;52.122;5.406;2023-05-10T08:49:31;21.63;;;9.68;;
72156;SDS011;60035;52.122;5.406;2023-05-10T08:51:59;20.55;;;9.30;;
72156;SDS011;60035;52.122;5.406;2023-05-10T08:54:30;19.80;;;9.32;;
72156;SDS011;60035;52.122;5.406;2023-05-10T08:56:58;21.80;;;10.00;;
72156;SDS011;60035;52.122;5.406;2023-05-10T08:59:24;16.80;;;8.95;;
72156;SDS011;60035;52.122;5.406;2023-05-10T09:01:51;18.83;;;9.27;;
72156;SDS011;60035;52.122;5.406;2023-05-10T09:04:20;17.63;;;9.15;;
72156;SDS011;60035;52.122;5.406;2023-05-10T09:06:47;18.95;;;9.13;;
72156;SDS011;60035;52.122;5.406;2023-05-10T09:09:14;23.88;;;10.98;;
72156;SDS011;60035;52.122;5.406;2023-05-10T09:11:42;18.10;;;8.88;;
72156;SDS011;60035;52.122;5.406;2023-05-10T09:14:09;17.50;;;9.20;;
72156;SDS011;60035;52.122;5.406;2023-05-10T09:16:38;15.85;;;7.72;;
72156;SDS011;60035;52.122;5.406;2023-05-10T09:19:05;16.83;;;8.93;;
72156;SDS011;60035;52.122;5.406;2023-05-10T09:21:34;14.73;;;7.70;;
72156;SDS011;60035;52.122;5.406;2023-05-10T09:26:31;14.32;;;6.15;;
72156;SDS011;60035;52.122;5.406;2023-05-10T09:28:58;16.05;;;7.68;;
72156;SDS011;60035;52.122;5.406;2023-05-10T09:34:16;13.35;;;6.53;;
72156;SDS011;60035;52.122;5.406;2023-05-10T09:36:50;14.88;;;6.85;;
72156;SDS011;60035;52.122;5.406;2023-05-10T09:39:18;11.95;;;6.25;;
72156;SDS011;60035;52.122;5.406;2023-05-10T09:41:44;13.40;;;5.82;;
72156;SDS011;60035;52.122;5.406;2023-05-10T09:44:11;11.48;;;6.30;;
72156;SDS011;60035;52.122;5.406;2023-05-10T09:46:37;12.57;;;5.32;;
72156;SDS011;60035;52.122;5.406;2023-05-10T09:49:04;10.38;;;5.10;;
72156;SDS011;60035;52.122;5.406;2023-05-10T09:51:31;10.10;;;4.72;;
72156;SDS011;60035;52.122;5.406;2023-05-10T09:54:11;10.20;;;4.53;;
72156;SDS011;60035;52.122;5.406;2023-05-10T09:56:39;9.98;;;4.90;;
72156;SDS011;60035;52.122;5.406;2023-05-10T09:59:10;9.07;;;5.05;;
72156;SDS011;60035;52.122;5.406;2023-05-10T10:01:38;10.57;;;4.20;;
72156;SDS011;60035;52.122;5.406;2023-05-10T10:04:06;9.80;;;4.82;;
72156;SDS011;60035;52.122;5.406;2023-05-10T10:06:38;10.60;;;4.82;;
72156;SDS011;60035;52.122;5.406;2023-05-10T10:09:06;9.85;;;4.72;;
72156;SDS011;60035;52.122;5.406;2023-05-10T10:11:34;9.25;;;4.53;;
72156;SDS011;60035;52.122;5.406;2023-05-10T10:14:02;9.55;;;4.63;;
72156;SDS011;60035;52.122;5.406;2023-05-10T10:16:29;10.27;;;5.05;;
72156;SDS011;60035;52.122;5.406;2023-05-10T10:18:56;10.75;;;4.97;;
72156;SDS011;60035;52.122;5.406;2023-05-10T10:21:23;11.05;;;5.50;;
72156;SDS011;60035;52.122;5.406;2023-05-10T10:23:51;10.65;;;4.85;;
72156;SDS011;60035;52.122;5.406;2023-05-10T10:26:20;12.55;;;4.90;;
72156;SDS011;60035;52.122;5.406;2023-05-10T10:28:51;13.00;;;5.72;;
72156;SDS011;60035;52.122;5.406;2023-05-10T10:31:41;11.40;;;5.53;;
72156;SDS011;60035;52.122;5.406;2023-05-10T10:34:19;11.02;;;6.03;;
72156;SDS011;60035;52.122;5.406;2023-05-10T10:37:06;12.80;;;5.82;;
72156;SDS011;60035;52.122;5.406;2023-05-10T10:39:33;12.23;;;6.07;;
72156;SDS011;60035;52.122;5.406;2023-05-10T10:42:03;13.20;;;6.70;;
72156;SDS011;60035;52.122;5.406;2023-05-10T10:52:36;12.18;;;5.32;;
72156;SDS011;60035;52.122;5.406;2023-05-10T10:57:45;12.77;;;5.45;;
72156;SDS011;60035;52.122;5.406;2023-05-10T11:00:20;9.40;;;5.30;;
72156;SDS011;60035;52.122;5.406;2023-05-10T11:02:58;13.23;;;5.88;;
72156;SDS011;60035;52.122;5.406;2023-05-10T11:07:55;11.13;;;5.10;;
72156;SDS011;60035;52.122;5.406;2023-05-10T11:10:23;9.90;;;4.80;;
72156;SDS011;60035;52.122;5.406;2023-05-10T11:15:33;10.10;;;4.85;;
72156;SDS011;60035;52.122;5.406;2023-05-10T11:20:58;10.00;;;4.88;;
72156;SDS011;60035;52.122;5.406;2023-05-10T11:23:32;9.25;;;4.68;;
72156;SDS011;60035;52.122;5.406;2023-05-10T11:26:14;10.27;;;4.90;;
72156;SDS011;60035;52.122;5.406;2023-05-10T11:28:42;9.30;;;4.88;;
72156;SDS011;60035;52.122;5.406;2023-05-10T11:31:16;10.00;;;4.38;;
72156;SDS011;60035;52.122;5.406;2023-05-10T11:33:44;9.32;;;4.40;;
72156;SDS011;60035;52.122;5.406;2023-05-10T11:36:11;10.27;;;4.07;;
72156;SDS011;60035;52.122;5.406;2023-05-10T11:38:43;9.23;;;4.60;;
72156;SDS011;60035;52.122;5.406;2023-05-10T11:41:09;10.68;;;4.40;;
72156;SDS011;60035;52.122;5.406;2023-05-10T11:43:38;9.52;;;4.15;;
72156;SDS011;60035;52.122;5.406;2023-05-10T11:46:06;9.23;;;4.25;;
72156;SDS011;60035;52.122;5.406;2023-05-10T11:48:35;10.20;;;4.32;;
72156;SDS011;60035;52.122;5.406;2023-05-10T11:51:02;10.45;;;4.03;;
72156;SDS011;60035;52.122;5.406;2023-05-10T11:53:30;8.18;;;3.70;;
72156;SDS011;60035;52.122;5.406;2023-05-10T11:56:05;8.25;;;3.38;;
72156;SDS011;60035;52.122;5.406;2023-05-10T11:58:32;8.40;;;3.80;;
72156;SDS011;60035;52.122;5.406;2023-05-10T12:01:00;7.82;;;3.65;;
72156;SDS011;60035;52.122;5.406;2023-05-10T12:03:27;8.93;;;3.92;;
72156;SDS011;60035;52.122;5.406;2023-05-10T12:05:54;8.60;;;3.85;;
72156;SDS011;60035;52.122;5.406;2023-05-10T12:08:23;10.98;;;3.80;;
72156;SDS011;60035;52.122;5.406;2023-05-10T12:10:51;11.52;;;3.95;;
72156;SDS011;60035;52.122;5.406;2023-05-10T12:13:18;7.85;;;4.20;;
72156;SDS011;60035;52.122;5.406;2023-05-10T12:15:47;7.18;;;3.10;;
72156;SDS011;60035;52.122;5.406;2023-05-10T12:18:14;6.22;;;3.05;;
72156;SDS011;60035;52.122;5.406;2023-05-10T12:20:41;7.22;;;3.08;;
72156;SDS011;60035;52.122;5.406;2023-05-10T12:23:08;8.82;;;3.08;;
72156;SDS011;60035;52.122;5.406;2023-05-10T12:25:36;8.13;;;3.92;;
72156;SDS011;60035;52.122;5.406;2023-05-10T12:28:04;7.45;;;2.85;;
72156;SDS011;60035;52.122;5.406;2023-05-10T12:30:35;8.20;;;3.40;;
72156;SDS011;60035;52.122;5.406;2023-05-10T12:33:06;7.90;;;3.60;;
72156;SDS011;60035;52.122;5.406;2023-05-10T12:35:45;7.95;;;3.15;;
72156;SDS011;60035;52.122;5.406;2023-05-10T12:38:29;8.65;;;3.60;;
72156;SDS011;60035;52.122;5.406;2023-05-10T12:41:04;9.13;;;3.75;;
72156;SDS011;60035;52.122;5.406;2023-05-10T12:43:36;7.13;;;3.10;;
72156;SDS011;60035;52.122;5.406;2023-05-10T12:46:07;7.43;;;2.85;;
72156;SDS011;60035;52.122;5.406;2023-05-10T12:48:35;7.55;;;3.05;;
72156;SDS011;60035;52.122;5.406;2023-05-10T12:51:02;6.82;;;3.00;;
72156;SDS011;60035;52.122;5.406;2023-05-10T12:53:29;7.38;;;3.17;;
72156;SDS011;60035;52.122;5.406;2023-05-10T12:55:56;6.95;;;3.85;;
72156;SDS011;60035;52.122;5.406;2023-05-10T12:58:23;5.65;;;2.30;;
72156;SDS011;60035;52.122;5.406;2023-05-10T13:01:00;6.30;;;2.55;;
72156;SDS011;60035;52.122;5.406;2023-05-10T13:03:27;6.15;;;2.55;;
72156;SDS011;60035;52.122;5.406;2023-05-10T13:05:54;5.68;;;2.10;;
72156;SDS011;60035;52.122;5.406;2023-05-10T13:08:20;5.43;;;2.20;;
72156;SDS011;60035;52.122;5.406;2023-05-10T13:10:47;4.47;;;2.08;;
72156;SDS011;60035;52.122;5.406;2023-05-10T13:13:13;7.45;;;2.95;;
72156;SDS011;60035;52.122;5.406;2023-05-10T13:15:41;8.15;;;3.95;;
72156;SDS011;60035;52.122;5.406;2023-05-10T13:18:07;7.97;;;4.50;;
72156;SDS011;60035;52.122;5.406;2023-05-10T13:20:34;8.73;;;4.25;;
72156;SDS011;60035;52.122;5.406;2023-05-10T13:23:01;9.15;;;4.93;;
72156;SDS011;60035;52.122;5.406;2023-05-10T13:25:28;11.25;;;5.65;;
72156;SDS011;60035;52.122;5.406;2023-05-10T13:27:55;11.63;;;5.20;;
72156;SDS011;60035;52.122;5.406;2023-05-10T13:30:21;12.30;;;5.32;;
72156;SDS011;60035;52.122;5.406;2023-05-10T13:32:48;12.88;;;4.70;;
72156;SDS011;60035;52.122;5.406;2023-05-10T13:35:14;13.70;;;4.97;;
72156;SDS011;60035;52.122;5.406;2023-05-10T13:37:41;11.05;;;4.57;;
72156;SDS011;60035;52.122;5.406;2023-05-10T13:40:08;12.30;;;5.35;;
72156;SDS011;60035;52.122;5.406;2023-05-10T13:42:34;12.20;;;5.05;;
72156;SDS011;60035;52.122;5.406;2023-05-10T13:45:01;11.60;;;4.45;;
72156;SDS011;60035;52.122;5.406;2023-05-10T13:47:27;14.57;;;6.00;;
72156;SDS011;60035;52.122;5.406;2023-05-10T13:49:54;14.23;;;5.82;;
72156;SDS011;60035;52.122;5.406;2023-05-10T13:52:20;14.90;;;5.60;;
72156;SDS011;60035;52.122;5.406;2023-05-10T13:54:47;14.93;;;5.82;;
72156;SDS011;60035;52.122;5.406;2023-05-10T13:57:13;17.30;;;6.20;;
72156;SDS011;60035;52.122;5.406;2023-05-10T13:59:40;14.68;;;5.18;;
72156;SDS011;60035;52.122;5.406;2023-05-10T14:02:06;15.70;;;6.85;;
72156;SDS011;60035;52.122;5.406;2023-05-10T14:04:32;16.63;;;6.20;;
72156;SDS011;60035;52.122;5.406;2023-05-10T14:07:01;17.70;;;5.63;;
72156;SDS011;60035;52.122;5.406;2023-05-10T14:09:27;13.45;;;5.70;;
72156;SDS011;60035;52.122;5.406;2023-05-10T14:11:54;15.20;;;7.00;;
72156;SDS011;60035;52.122;5.406;2023-05-10T14:14:21;16.67;;;6.40;;
72156;SDS011;60035;52.122;5.406;2023-05-10T14:16:48;15.60;;;6.05;;
72156;SDS011;60035;52.122;5.406;2023-05-10T14:19:14;15.60;;;6.18;;
72156;SDS011;60035;52.122;5.406;2023-05-10T14:21:41;14.77;;;6.05;;
72156;SDS011;60035;52.122;5.406;2023-05-10T14:24:08;16.85;;;6.68;;
72156;SDS011;60035;52.122;5.406;2023-05-10T14:26:35;16.13;;;6.35;;
72156;SDS011;60035;52.122;5.406;2023-05-10T14:29:01;15.43;;;6.15;;
72156;SDS011;60035;52.122;5.406;2023-05-10T14:31:28;14.60;;;6.28;;
72156;SDS011;60035;52.122;5.406;2023-05-10T14:33:56;16.10;;;5.97;;
72156;SDS011;60035;52.122;5.406;2023-05-10T14:36:23;15.82;;;6.55;;
72156;SDS011;60035;52.122;5.406;2023-05-10T14:38:52;14.23;;;6.00;;
72156;SDS011;60035;52.122;5.406;2023-05-10T14:41:18;15.93;;;6.80;;
72156;SDS011;60035;52.122;5.406;2023-05-10T14:43:45;17.23;;;6.78;;
72156;SDS011;60035;52.122;5.406;2023-05-10T14:46:12;17.98;;;6.97;;
72156;SDS011;60035;52.122;5.406;2023-05-10T14:48:38;17.10;;;6.70;;
72156;SDS011;60035;52.122;5.406;2023-05-10T14:51:05;16.27;;;6.72;;
72156;SDS011;60035;52.122;5.406;2023-05-10T14:53:32;16.75;;;6.72;;
72156;SDS011;60035;52.122;5.406;2023-05-10T14:55:59;16.95;;;7.43;;
72156;SDS011;60035;52.122;5.406;2023-05-10T14:58:29;17.98;;;7.53;;
72156;SDS011;60035;52.122;5.406;2023-05-10T15:00:59;15.82;;;6.90;;
72156;SDS011;60035;52.122;5.406;2023-05-10T15:03:26;15.98;;;7.50;;
72156;SDS011;60035;52.122;5.406;2023-05-10T15:05:53;17.70;;;7.57;;
72156;SDS011;60035;52.122;5.406;2023-05-10T15:08:19;18.08;;;7.22;;
72156;SDS011;60035;52.122;5.406;2023-05-10T15:10:46;15.15;;;7.03;;